Weather observations for the past three days for
Fort Madison Municipal Airport
Imperial (Metric)
Date Time (cdt) Wind (mph) Vis. (mi.) Weather Sky Cond. Temperature (ºF) Relative Humidity Wind Chill (°F) Heat Index (°F) Pressure Precipitation (in)
Air Dwpt 6 hour altimeter (in) sea level (mb) 1 hr 3 hr 6 hr
Max. Min.
09 18:55 NW 12 10.00 Mostly Cloudy BKN100 68 42.8 81.1 68.5 40% 29.78 0.0
09 18:35 NW 16 10.00 Fair CLR 69.8 42.8 38% 29.78 0.0
09 18:15 NW 14 10.00 A Few Clouds FEW110 69.8 42.8 38% 29.77 0.0
09 17:55 NW 18 10.00 Mostly Cloudy BKN110 73.4 42.8 33% 29.76 0.0
09 17:35 W 16 G 22 10.00 Fair CLR 77 35.6 22% 77 29.75 0.0
09 17:15 W 16 G 22 10.00 Fair CLR 77 35.6 22% 77 29.74 0.0
09 16:55 W 16 G 23 10.00 A Few Clouds FEW120 78.8 35.6 21% 78 29.74 0.0
09 16:35 W 12 10.00 A Few Clouds FEW120 78.8 37.4 23% 78 29.74 0.0
09 16:15 W 13 5.00 Partly Cloudy with Haze SCT120 78.8 35.6 21% 78 29.74 0.0
09 15:55 W 20 G 25 10.00 Mostly Cloudy BKN120 80.6 33.8 18% 79 29.74 0.0
09 15:35 W 18 10.00 Partly Cloudy SCT120 80.6 33.8 18% 79 29.74 0.0
09 15:15 W 12 G 23 10.00 Fair CLR 80.6 33.8 18% 79 29.74 0.0
09 14:55 W 12 G 20 10.00 Fair CLR 80.6 33.8 18% 79 29.74 0.0
09 14:35 W 16 G 23 10.00 A Few Clouds FEW120 78.8 32 18% 78 29.74 0.0
09 14:15 W 9 10.00 Fair CLR 78.8 35.6 21% 78 29.75 0.0
09 13:55 W 9 G 20 10.00 Fair CLR 77 35.6 22% 77 29.75 0.0
09 13:35 W 17 G 23 10.00 Fair CLR 78.8 35.6 21% 78 29.75 0.0
09 13:15 W 15 G 22 10.00 Fair CLR 77 37.4 24% 77 29.75 0.0
09 12:55 W 18 G 22 10.00 Fair CLR 77 35.6 78.1 52 22% 77 29.75 0.0
09 12:35 W 13 G 20 10.00 Fair CLR 77 39.2 26% 77 29.75 0.0
09 12:15 W 12 G 18 10.00 Fair CLR 77 39.2 26% 77 29.74 0.0
09 11:55 W 15 10.00 Fair CLR 75.2 41 29% 77 29.73 0.0
09 11:35 W 10 G 16 10.00 Fair CLR 73.4 44.6 36% 29.74 0.0
09 11:15 W 6 10.00 Fair CLR 71.6 48.2 44% 29.73 0.0
09 10:55 Vrbl 6 10.00 Fair CLR 69.8 50 50% 29.73 0.0
09 10:35 W 6 10.00 Fair CLR 68 50 53% 29.73 0.0
09 10:15 Vrbl 5 10.00 Fair CLR 66.2 51.8 60% 29.74 0.0
09 09:55 SW 8 10.00 Fair CLR 64.4 51.8 64% 29.73 0.0
09 09:35 SW 6 10.00 Fair CLR 62.6 51.8 68% 29.73 0.0
09 09:15 SW 6 10.00 Fair CLR 60.8 51.8 72% 29.73 0.0
09 08:55 SW 9 10.00 Fair CLR 59 51.8 77% 29.73 0.0
09 08:35 W 7 10.00 Fair CLR 59 53.6 82% 29.72 0.0
09 08:15 SW 7 10.00 Fair CLR 57.2 53.6 88% 29.72 0.0
09 07:55 SW 8 10.00 Fair CLR 55.4 53.6 94% 29.72 0.0
09 07:35 SW 8 6.00 Fog/Mist FEW003 53.6 53.6 100% 29.72 0.0
09 07:15 S 8 3.00 Fog/Mist BKN001 53.6 51.8 94% 29.71 0.0
09 06:55 S 9 2.00 Fog/Mist OVC001 51.8 51.8 53.2 50.5 100% 29.71 0.0
09 06:35 S 10 1.25 Fog/Mist OVC001 51.8 51.8 100% 29.7 0.0
09 06:15 S 12 G 17 0.75 Fog/Mist OVC001 51.8 51.8 100% 29.7 0.0
09 05:55 S 10 3.00 Fog/Mist BKN003 51.8 50 94% 29.69 0.0
09 05:35 S 9 5.00 Fog/Mist CLR 50 50 100% 47 29.7 0.0
09 05:15 S 8 7.00 Fog/Mist CLR 51.8 50 94% 29.69 0.0
09 04:55 S 9 6.00 Fog/Mist CLR 51.8 50 94% 29.69 0.0
09 04:35 S 9 7.00 Fog/Mist CLR 51.8 50 94% 29.69 0.0
09 04:15 S 9 8.00 Fair CLR 51.8 50 94% 29.69 0.0
09 03:55 S 9 7.00 Fair CLR 51.8 50 94% 29.7 0.0
09 03:35 S 8 8.00 Fair CLR 51.8 50 94% 29.69 0.0
09 02:55 S 9 9.00 Fair CLR 51.8 51.8 100% 29.69 0.0
09 02:35 S 9 8.00 Fair CLR 51.8 51.8 100% 29.69 0.0
09 02:15 S 8 8.00 Fair CLR 51.8 51.8 100% 29.7 0.0
09 01:55 S 10 10.00 Fair CLR 53.6 51.8 94% 29.7 0.0
09 01:35 S 9 10.00 Fair CLR 53.6 51.8 94% 29.71 0.0
09 01:15 S 9 10.00 Fair CLR 53.6 51.8 94% 29.71 0.0
09 00:55 S 8 10.00 Fair CLR 53.6 51.8 61 52.9 94% 29.72 0.0
09 00:35 S 8 10.00 Fair CLR 53.6 51.8 94% 29.72 0.0
09 00:15 S 10 10.00 Fair CLR 53.6 53.6 100% 29.73 0.0
08 23:55 S 10 10.00 Fair CLR 53.6 53.6 100% 29.74 0.0
08 23:35 S 9 10.00 Fair CLR 53.6 53.6 100% 29.74 0.0
08 23:15 S 9 10.00 Fair CLR 55.4 53.6 94% 29.74 0.0
08 22:55 S 10 10.00 Fair CLR 55.4 53.6 94% 29.75 0.0
08 22:35 S 10 10.00 Fair CLR 55.4 53.6 94% 29.74 0.0
08 22:15 S 9 10.00 Fair CLR 55.4 53.6 94% 29.74 0.0
08 21:55 S 8 10.00 Fair CLR 55.4 51.8 88% 29.74 0.0
08 21:35 S 8 10.00 Fair CLR 55.4 51.8 88% 29.73 0.0
08 21:15 S 10 10.00 Fair CLR 57.2 51.8 82% 29.73 0.0
08 20:55 S 8 10.00 Fair CLR 57.2 51.8 82% 29.73 0.0
08 20:35 S 9 10.00 Fair CLR 57.2 51.8 82% 29.73 0.0
08 20:15 S 10 10.00 Fair CLR 59 51.8 77% 29.73 0.0
08 19:35 S 8 10.00 Fair CLR 59 51.8 77% 29.73 0.0
08 19:15 S 8 10.00 Fair CLR 60.8 50 68% 29.73 0.0
08 18:55 S 12 10.00 Fair CLR 60.8 51.8 68.2 56.5 72% 29.73 0.0
08 18:35 S 12 10.00 Fair CLR 60.8 51.8 72% 29.74 0.0
08 18:15 S 16 10.00 Fair CLR 60.8 51.8 72% 29.74 0.0
08 17:55 S 14 10.00 Fair CLR 62.6 50 64% 29.74 0.0
08 17:15 S 14 10.00 Fair CLR 62.6 50 64% 29.74 0.0
08 16:55 S 13 10.00 Fair CLR 64.4 51.8 64% 29.75 0.0
08 16:35 S 10 10.00 Fair CLR 68 50 53% 29.75 0.0
08 16:15 S 14 10.00 Fair CLR 66.2 48.2 52% 29.75 0.0
08 15:55 S 10 10.00 Fair CLR 66.2 50 56% 29.75 0.0
08 15:35 S 9 10.00 Fair CLR 66.2 50 56% 29.76 0.0
08 15:15 Vrbl 2 10.00 Fair CLR 66.2 51.8 60% 29.78 0.0
08 14:55 S 10 10.00 Fair CLR 64.4 50 60% 29.78 0.0
08 14:35 S 9 10.00 Fair CLR 62.6 50 64% 29.79 0.0
08 14:15 S 10 10.00 Fair CLR 60.8 50 68% 29.79 0.0
08 13:55 S 12 10.00 Fair CLR 60.8 50 68% 29.79 0.0
08 13:35 S 13 10.00 Fair CLR 59 50 72% 29.79 0.0
08 13:15 S 9 10.00 Light Rain SCT070 BKN100 BKN110 57.2 50 77% 29.79 0.0
08 12:55 S 9 10.00 Mostly Cloudy BKN100 BKN120 57.2 50 58.5 50.7 77% 29.8 0.0
08 12:35 S 7 10.00 Overcast FEW070 BKN100 OVC120 57.2 50 77% 29.81 0.0
08 12:15 S 5 10.00 Light Rain SCT080 BKN090 OVC120 57.2 50 77% 29.82 0.0
08 11:55 S 8 10.00 Light Rain SCT070 BKN090 OVC110 57.2 48.2 72% 29.83 0.0
08 11:35 S 7 10.00 Mostly Cloudy SCT095 BKN110 57.2 48.2 72% 29.84 0.0
08 11:15 S 9 G 17 10.00 Partly Cloudy SCT085 59 48.2 68% 29.83 0.0
08 10:55 S 13 10.00 Mostly Cloudy BKN085 57.2 48.2 72% 29.84 0.0
08 10:35 S 13 10.00 Overcast BKN085 OVC110 57.2 48.2 72% 29.82 0.0
08 10:15 S 9 10.00 Overcast FEW085 OVC110 55.4 48.2 77% 29.83 0.0
08 09:55 S 7 10.00 Overcast FEW070 OVC100 55.4 48.2 77% 29.84 0.0
08 09:35 Vrbl 2 10.00 Overcast FEW070 OVC090 55.4 48.2 77% 29.84 0.0
08 09:15 S 8 10.00 Light Rain FEW065 OVC090 55.4 48.2 77% 29.85 0.0
08 08:55 S 10 10.00 Mostly Cloudy BKN090 55.4 48.2 77% 29.85 0.0
08 08:15 S 3 10.00 Mostly Cloudy BKN120 53.6 46.4 77% 29.84 0.0
08 07:35 S 7 10.00 Partly Cloudy SCT120 51.8 48.2 88% 29.83 0.0
08 07:15 S 2 10.00 Fair CLR 51.8 48.2 88% 29.83 0.0
08 06:55 SW 2 10.00 Fair CLR 51.8 44.6 58.1 46.4 77% 29.82 0.0
08 06:35 SW 2 10.00 Fair CLR 50 44.6 82% 29.82 0.0
08 06:15 Vrbl 2 10.00 Fair CLR 50 44.6 82% 29.82 0.0
08 05:55 S 2 10.00 Fair CLR 48.2 42.8 82% 29.82 0.0
08 05:35 SW 1 10.00 Fair CLR 51.8 42.8 72% 29.82 0.0
08 05:15 SW 2 10.00 Fair CLR 50 42.8 76% 29.82 0.0
08 04:55 SW 3 10.00 Fair CLR 50 42.8 76% 29.81 0.0
08 04:35 W 2 10.00 Fair CLR 50 42.8 76% 29.81 0.0
08 04:15 W 6 10.00 Fair CLR 51.8 42.8 72% 29.81 0.0
08 03:55 S 9 10.00 Fair CLR 53.6 44.6 72% 29.8 0.0
08 03:35 S 10 10.00 Fair CLR 53.6 44.6 72% 29.79 0.0
08 03:15 S 10 10.00 Fair CLR 55.4 44.6 67% 29.8 0.0
08 02:35 S 10 10.00 Partly Cloudy SCT080 55.4 44.6 67% 29.81 0.0
08 02:15 S 10 10.00 Overcast OVC080 57.2 44.6 63% 29.82 0.0
08 01:55 S 10 10.00 Partly Cloudy SCT080 57.2 44.6 63% 29.83 0.0
08 01:35 S 10 10.00 Mostly Cloudy SCT080 BKN095 57.2 44.6 63% 29.83 0.0
08 01:15 S 10 10.00 Overcast BKN090 OVC110 57.2 44.6 63% 29.84 0.0
08 00:55 S 13 10.00 Overcast BKN080 OVC100 57.2 44.6 65.5 52.7 63% 29.84 0.0
08 00:35 S 10 10.00 Overcast BKN080 OVC100 57.2 44.6 63% 29.85 0.0
08 00:15 S 9 10.00 Overcast BKN080 OVC110 57.2 44.6 63% 29.85 0.0
07 23:55 S 10 10.00 Overcast BKN085 OVC110 59 44.6 59% 29.85 0.0
07 23:35 S 10 10.00 Overcast OVC085 59 44.6 59% 29.85 0.0
07 23:15 S 10 10.00 Overcast OVC085 57.2 44.6 63% 29.86 0.0
07 22:55 S 7 10.00 Mostly Cloudy BKN095 BKN110 57.2 44.6 63% 29.86 0.0
07 22:35 S 8 10.00 Mostly Cloudy SCT095 BKN110 55.4 44.6 67% 29.85 0.0
07 21:55 S 7 10.00 Partly Cloudy SCT095 SCT110 55.4 42.8 63% 29.85 0.0
07 21:35 SE 7 10.00 Partly Cloudy SCT095 55.4 44.6 67% 29.84 0.0
07 21:15 SE 5 10.00 Fair CLR 53.6 44.6 72% 29.84 0.0
07 20:55 E 5 10.00 Fair CLR 53.6 44.6 72% 29.84 0.0
07 20:35 NE 3 10.00 Fair CLR 57.2 44.6 63% 29.83 0.0
07 20:15 S 2 10.00 Fair CLR 60.8 41 48% 29.83 0.0
07 19:55 S 5 10.00 Fair CLR 62.6 41 45% 29.83 0.0
07 19:35 SW 7 10.00 Fair CLR 64.4 39.2 40% 29.82 0.0
07 19:15 SW 10 10.00 Mostly Cloudy FEW085 BKN120 66.2 39.2 37% 29.82 0.0
07 18:55 S 5 10.00 Mostly Cloudy BKN085 BKN110 64.4 41 68.4 60.6 43% 29.82 0.0
07 18:35 SW 5 10.00 Partly Cloudy SCT095 64.4 39.2 40% 29.82 0.0
07 18:15 SW 9 10.00 Mostly Cloudy BKN095 BKN120 66.2 37.4 35% 29.83 0.0
07 17:55 S 12 10.00 A Few Clouds FEW120 68 39.2 35% 29.83 0.0
07 17:35 SW 9 G 21 10.00 Partly Cloudy FEW070 SCT110 66.2 37.4 35% 29.83 0.0
07 17:15 SW 10 G 22 10.00 Mostly Cloudy BKN070 BKN120 68 37.4 33% 29.83 0.0
07 16:55 Vrbl 6 10.00 Light Rain BKN070 BKN085 BKN110 64.4 39.2 40% 29.83 0.0
07 16:35 SW 7 10.00 Light Rain SCT075 SCT080 64.4 39.2 40% 29.83 0.0
07 16:15 SW 7 10.00 Mostly Cloudy FEW060 BKN075 BKN100 64.4 37.4 37% 29.84 0.0
07 15:55 SW 7 10.00 Mostly Cloudy SCT070 SCT075 BKN090 64.4 37.4 37% 29.85 0.0
07 15:35 W 9 10.00 Mostly Cloudy SCT080 BKN100 64.4 37.4 37% 29.85 0.0
07 15:15 W 9 10.00 Partly Cloudy FEW055 SCT090 SCT110 64.4 41 43% 29.86 0.0
07 14:35 SW 9 5.00 Light Rain Haze FEW055 BKN075 BKN095 64.4 39.2 40% 29.88 0.0
07 14:15 SW 10 10.00 Mostly Cloudy SCT065 SCT075 BKN095 66.2 37.4 35% 29.88 0.0
07 13:55 W 12 G 16 10.00 Partly Cloudy SCT065 SCT095 64.4 39.2 40% 29.89 0.0
07 13:35 NW 9 10.00 A Few Clouds FEW085 64.4 39.2 40% 29.89 0.0
07 13:15 NW 8 10.00 Mostly Cloudy SCT070 BKN090 BKN110 62.6 41 45% 29.9 0.0
07 12:55 NW 10 10.00 Overcast SCT060 OVC100 60.8 39.2 64 45.7 45% 29.9 0.0
07 12:15 SW 14 G 23 6.00 Mostly Cloudy with Haze SCT055 BKN075 BKN085 62.6 37.4 39% 29.91 0.0
07 11:55 SW 14 G 18 10.00 Mostly Cloudy SCT055 SCT075 BKN110 62.6 37.4 39% 29.92 0.0
07 11:35 SW 15 G 25 10.00 Mostly Cloudy SCT055 BKN065 BKN110 62.6 37.4 39% 29.93 0.0
07 10:55 SW 15 G 20 10.00 Overcast FEW050 OVC110 60.8 39.2 45% 29.94 0.0
07 10:35 SW 12 G 20 10.00 Mostly Cloudy BKN110 59 39.2 48% 29.94 0.0
07 10:15 SW 9 G 17 10.00 A Few Clouds FEW110 59 37.4 45% 29.94 0.0
07 09:55 SW 13 G 22 10.00 Fair CLR 57.2 37.4 48% 29.94 0.0
07 09:35 S 13 G 20 10.00 Fair CLR 57.2 37.4 48% 29.94 0.0
07 09:15 S 14 G 20 10.00 Fair CLR 55.4 35.6 47% 29.95 0.0
07 08:55 S 17 10.00 Fair CLR 53.6 33.8 47% 29.95 0.0
07 08:35 S 15 G 21 10.00 Fair CLR 51.8 35.6 54% 29.95 0.0
07 08:15 S 13 10.00 Partly Cloudy SCT090 SCT110 50 33.8 54% 46 29.96 0.0
07 07:55 S 12 10.00 Partly Cloudy SCT090 SCT110 50 33.8 54% 46 29.97 0.0
07 07:35 S 10 10.00 Partly Cloudy FEW090 SCT120 48.2 35.6 62% 44 29.97 0.0
07 07:15 S 12 10.00 Mostly Cloudy BKN110 46.4 33.8 62% 42 29.97 0.0
07 06:55 S 13 10.00 Mostly Cloudy FEW090 BKN110 46.4 33.8 45.9 39.7 62% 41 29.97 0.0
07 06:35 S 8 10.00 Mostly Cloudy BKN110 44.6 35.6 71% 41 29.98 0.0
07 05:55 S 9 10.00 Mostly Cloudy BKN110 44.6 33.8 66% 40 29.97 0.0
07 05:35 S 8 10.00 A Few Clouds FEW100 42.8 33.8 71% 39 29.98 0.0
07 05:15 S 8 10.00 Fair CLR 42.8 33.8 71% 39 29.99 0.0
07 04:55 S 7 10.00 Fair CLR 42.8 33.8 71% 39 29.98 0.0
07 04:35 S 8 10.00 Fair CLR 42.8 33.8 71% 39 29.99 0.0
07 04:15 S 8 10.00 Fair CLR 42.8 33.8 71% 39 29.99 0.0
07 03:55 S 8 10.00 Fair CLR 42.8 33.8 71% 39 29.99 0.0
07 03:35 S 7 10.00 Fair CLR 42.8 33.8 71% 39 29.99 0.0
07 03:15 S 7 10.00 Fair CLR 41 35.6 81% 37 30 0.0
07 02:55 S 7 10.00 Fair CLR 41 35.6 81% 37 30 0.0
07 02:35 S 6 10.00 Fair CLR 42.8 35.6 76% 40 30 0.0
07 02:15 S 7 10.00 Fair CLR 41 37.4 87% 37 30.01 0.0
07 01:55 S 5 10.00 Fair CLR 42.8 35.6 76% 41 30.01 0.0
07 01:35 S 5 10.00 Fair CLR 44.6 32 61% 43 30.02 0.0
07 01:15 S 5 10.00 Fair CLR 44.6 30.2 57% 43 30.02 0.0
07 00:55 S 3 10.00 Fair CLR 42.8 30.2 55.6 40.6 61% 30.02 0.0
07 00:35 S 2 10.00 Fair CLR 42.8 32 66% 30.03 0.0
07 00:15 S 3 10.00 Fair CLR 42.8 32 66% 30.03 0.0
06 23:35 SW 3 10.00 Fair CLR 42.8 30.2 61% 30.02 0.0
06 23:15 SW 3 10.00 Fair CLR 44.6 30.2 57% 30.03 0.0
06 22:55 SW 5 10.00 Fair CLR 42.8 32 66% 41 30.03 0.0
06 22:35 SW 3 10.00 Fair CLR 44.6 30.2 57% 30.03 0.0
06 22:15 SW 3 10.00 Fair CLR 44.6 32 61% 30.03 0.0
06 21:55 SW 5 10.00 Fair CLR 48.2 28.4 46% 47 30.03 0.0
06 21:35 SW 3 10.00 Fair CLR 44.6 30.2 57% 30.03 0.0
06 20:55 SW 2 10.00 Fair CLR 44.6 30.2 57% 30.02 0.0
06 20:35 SW 2 10.00 Fair CLR 48.2 30.2 50% 30.01 0.0
06 20:15 NW 3 10.00 Fair CLR 50 28.4 43% 30.01 0.0
06 19:55 W 6 10.00 Fair CLR 51.8 28.4 41% 30.01 0.0
06 19:35 W 6 10.00 Fair CLR 53.6 28.4 38% 30.01 0.0
06 19:15 W 9 10.00 Fair CLR 55.4 26.6 33% 30.01 0.0
Date Time (cdt) Wind (mph) Vis. (mi.) Weather Sky Cond. Air Dwpt Max. Min. Relative Humidity Wind Chill (°F) Heat Index (°F) altimeter (in) sea level (mb) 1 hr 3 hr 6 hr
6 hour
Temperature (ºF) Pressure Precipitation (in)